sensor_id;sensor_type;location;lat;lon;timestamp;temperature;humidity
5200;DHT22;2619;47.868;11.892;2023-06-14T00:01:43;8.20;99.90
5200;DHT22;2619;47.868;11.892;2023-06-14T00:04:11;8.10;99.90
5200;DHT22;2619;47.868;11.892;2023-06-14T00:06:38;8.10;99.90
5200;DHT22;2619;47.868;11.892;2023-06-14T00:09:04;8.10;99.90
5200;DHT22;2619;47.868;11.892;2023-06-14T00:11:33;8.00;99.90
5200;DHT22;2619;47.868;11.892;2023-06-14T00:13:58;8.00;99.90
5200;DHT22;2619;47.868;11.892;2023-06-14T00:16:24;7.90;99.90
5200;DHT22;2619;47.868;11.892;2023-06-14T00:18:50;7.90;99.90
5200;DHT22;2619;47.868;11.892;2023-06-14T00:21:17;7.90;99.90
5200;DHT22;2619;47.868;11.892;2023-06-14T00:23:43;7.90;99.90
5200;DHT22;2619;47.868;11.892;2023-06-14T00:26:08;7.80;99.90
5200;DHT22;2619;47.868;11.892;2023-06-14T00:28:34;7.80;99.90
5200;DHT22;2619;47.868;11.892;2023-06-14T00:30:59;7.70;99.90
5200;DHT22;2619;47.868;11.892;2023-06-14T00:33:25;7.70;99.90
5200;DHT22;2619;47.868;11.892;2023-06-14T00:35:51;7.70;99.90
5200;DHT22;2619;47.868;11.892;2023-06-14T00:38:19;7.60;99.90
5200;DHT22;2619;47.868;11.892;2023-06-14T00:40:45;7.60;99.90
5200;DHT22;2619;47.868;11.892;2023-06-14T00:43:10;7.70;99.90
5200;DHT22;2619;47.868;11.892;2023-06-14T00:45:36;7.60;99.90
5200;DHT22;2619;47.868;11.892;2023-06-14T00:48:02;7.60;99.90
5200;DHT22;2619;47.868;11.892;2023-06-14T00:50:28;7.60;99.90
5200;DHT22;2619;47.868;11.892;2023-06-14T00:52:55;7.60;99.90
5200;DHT22;2619;47.868;11.892;2023-06-14T00:55:21;7.60;99.90
5200;DHT22;2619;47.868;11.892;2023-06-14T00:57:47;7.60;99.90
5200;DHT22;2619;47.868;11.892;2023-06-14T01:00:13;7.60;99.90
5200;DHT22;2619;47.868;11.892;2023-06-14T01:02:39;7.50;99.90
5200;DHT22;2619;47.868;11.892;2023-06-14T01:05:06;7.40;99.90
5200;DHT22;2619;47.868;11.892;2023-06-14T01:10:37;7.30;99.90
5200;DHT22;2619;47.868;11.892;2023-06-14T01:13:23;7.20;99.90
5200;DHT22;2619;47.868;11.892;2023-06-14T01:15:53;7.20;99.90
5200;DHT22;2619;47.868;11.892;2023-06-14T01:18:19;7.10;99.90
5200;DHT22;2619;47.868;11.892;2023-06-14T01:20:47;7.10;99.90
5200;DHT22;2619;47.868;11.892;2023-06-14T01:23:19;7.20;99.90
5200;DHT22;2619;47.868;11.892;2023-06-14T01:25:46;7.20;99.90
5200;DHT22;2619;47.868;11.892;2023-06-14T01:28:12;7.20;99.90
5200;DHT22;2619;47.868;11.892;2023-06-14T01:30:45;7.20;99.90
5200;DHT22;2619;47.868;11.892;2023-06-14T01:33:16;7.20;99.90
5200;DHT22;2619;47.868;11.892;2023-06-14T01:35:44;7.30;99.90
5200;DHT22;2619;47.868;11.892;2023-06-14T01:38:10;7.40;99.90
5200;DHT22;2619;47.868;11.892;2023-06-14T01:40:38;7.40;99.90
5200;DHT22;2619;47.868;11.892;2023-06-14T01:43:05;7.30;99.90
5200;DHT22;2619;47.868;11.892;2023-06-14T01:45:31;7.30;99.90
5200;DHT22;2619;47.868;11.892;2023-06-14T01:47:58;7.30;99.90
5200;DHT22;2619;47.868;11.892;2023-06-14T01:50:28;7.30;99.90
5200;DHT22;2619;47.868;11.892;2023-06-14T01:52:54;7.20;99.90
5200;DHT22;2619;47.868;11.892;2023-06-14T01:55:20;7.10;99.90
5200;DHT22;2619;47.868;11.892;2023-06-14T01:57:47;7.00;99.90
5200;DHT22;2619;47.868;11.892;2023-06-14T02:00:14;7.00;99.90
5200;DHT22;2619;47.868;11.892;2023-06-14T02:02:40;7.00;99.90
5200;DHT22;2619;47.868;11.892;2023-06-14T02:05:06;7.10;99.90
5200;DHT22;2619;47.868;11.892;2023-06-14T02:07:32;7.20;99.90
5200;DHT22;2619;47.868;11.892;2023-06-14T02:09:58;7.20;99.90
5200;DHT22;2619;47.868;11.892;2023-06-14T02:12:24;7.20;99.90
5200;DHT22;2619;47.868;11.892;2023-06-14T02:14:50;7.20;99.90
5200;DHT22;2619;47.868;11.892;2023-06-14T02:17:16;7.10;99.90
5200;DHT22;2619;47.868;11.892;2023-06-14T02:19:42;7.10;99.90
5200;DHT22;2619;47.868;11.892;2023-06-14T02:22:08;7.00;99.90
5200;DHT22;2619;47.868;11.892;2023-06-14T02:24:33;6.90;99.90
5200;DHT22;2619;47.868;11.892;2023-06-14T02:26:59;6.80;99.90
5200;DHT22;2619;47.868;11.892;2023-06-14T02:29:25;6.70;99.90
5200;DHT22;2619;47.868;11.892;2023-06-14T02:31:51;6.60;99.90
5200;DHT22;2619;47.868;11.892;2023-06-14T02:34:16;6.60;99.90
5200;DHT22;2619;47.868;11.892;2023-06-14T02:36:43;6.60;99.90
5200;DHT22;2619;47.868;11.892;2023-06-14T02:39:09;6.70;99.90
5200;DHT22;2619;47.868;11.892;2023-06-14T02:41:35;6.70;99.90
5200;DHT22;2619;47.868;11.892;2023-06-14T02:44:01;6.70;99.90
5200;DHT22;2619;47.868;11.892;2023-06-14T02:46:27;6.60;99.90
5200;DHT22;2619;47.868;11.892;2023-06-14T02:48:52;6.60;99.90
5200;DHT22;2619;47.868;11.892;2023-06-14T02:51:18;6.60;99.90
5200;DHT22;2619;47.868;11.892;2023-06-14T02:53:43;6.60;99.90
5200;DHT22;2619;47.868;11.892;2023-06-14T02:56:09;6.50;99.90
5200;DHT22;2619;47.868;11.892;2023-06-14T02:58:36;6.50;99.90
5200;DHT22;2619;47.868;11.892;2023-06-14T03:01:02;6.50;99.90
5200;DHT22;2619;47.868;11.892;2023-06-14T03:03:29;6.50;99.90
5200;DHT22;2619;47.868;11.892;2023-06-14T03:05:55;6.40;99.90
5200;DHT22;2619;47.868;11.892;2023-06-14T03:08:21;6.40;99.90
5200;DHT22;2619;47.868;11.892;2023-06-14T03:10:52;6.30;99.90
5200;DHT22;2619;47.868;11.892;2023-06-14T03:13:18;6.30;99.90
5200;DHT22;2619;47.868;11.892;2023-06-14T03:15:47;6.20;99.90
5200;DHT22;2619;47.868;11.892;2023-06-14T03:18:16;6.20;99.90
5200;DHT22;2619;47.868;11.892;2023-06-14T03:20:42;6.20;99.90
5200;DHT22;2619;47.868;11.892;2023-06-14T03:23:08;6.20;99.90
5200;DHT22;2619;47.868;11.892;2023-06-14T03:25:34;6.20;99.90
5200;DHT22;2619;47.868;11.892;2023-06-14T03:28:04;6.20;99.90
5200;DHT22;2619;47.868;11.892;2023-06-14T03:30:30;6.20;99.90
5200;DHT22;2619;47.868;11.892;2023-06-14T03:32:56;6.30;99.90
5200;DHT22;2619;47.868;11.892;2023-06-14T03:35:23;6.40;99.90
5200;DHT22;2619;47.868;11.892;2023-06-14T03:37:48;6.30;99.90
5200;DHT22;2619;47.868;11.892;2023-06-14T03:40:17;6.30;99.90
5200;DHT22;2619;47.868;11.892;2023-06-14T03:42:42;6.30;99.90
5200;DHT22;2619;47.868;11.892;2023-06-14T03:45:08;6.30;99.90
5200;DHT22;2619;47.868;11.892;2023-06-14T03:47:34;6.30;99.90
5200;DHT22;2619;47.868;11.892;2023-06-14T03:50:00;6.40;99.90
5200;DHT22;2619;47.868;11.892;2023-06-14T03:52:26;6.70;99.90
5200;DHT22;2619;47.868;11.892;2023-06-14T03:54:52;6.80;99.90
5200;DHT22;2619;47.868;11.892;2023-06-14T03:57:18;6.90;99.90
5200;DHT22;2619;47.868;11.892;2023-06-14T03:59:45;6.90;99.90
5200;DHT22;2619;47.868;11.892;2023-06-14T04:02:11;6.90;99.90
5200;DHT22;2619;47.868;11.892;2023-06-14T04:04:37;7.00;99.90
5200;DHT22;2619;47.868;11.892;2023-06-14T04:07:03;7.10;99.90
5200;DHT22;2619;47.868;11.892;2023-06-14T04:09:31;7.20;99.90
5200;DHT22;2619;47.868;11.892;2023-06-14T04:11:57;7.30;99.90
5200;DHT22;2619;47.868;11.892;2023-06-14T04:14:23;7.40;99.90
5200;DHT22;2619;47.868;11.892;2023-06-14T04:16:49;7.60;99.90
5200;DHT22;2619;47.868;11.892;2023-06-14T04:19:15;7.70;99.90
5200;DHT22;2619;47.868;11.892;2023-06-14T04:21:42;7.80;99.90
5200;DHT22;2619;47.868;11.892;2023-06-14T04:24:07;7.90;99.90
5200;DHT22;2619;47.868;11.892;2023-06-14T04:26:39;8.30;99.90
5200;DHT22;2619;47.868;11.892;2023-06-14T04:29:05;9.00;99.90
5200;DHT22;2619;47.868;11.892;2023-06-14T04:31:31;10.10;99.90
5200;DHT22;2619;47.868;11.892;2023-06-14T04:33:59;11.20;99.90
5200;DHT22;2619;47.868;11.892;2023-06-14T04:36:25;12.10;99.90
5200;DHT22;2619;47.868;11.892;2023-06-14T04:38:53;12.70;99.90
5200;DHT22;2619;47.868;11.892;2023-06-14T04:41:21;13.10;99.90
5200;DHT22;2619;47.868;11.892;2023-06-14T04:43:51;13.80;99.90
5200;DHT22;2619;47.868;11.892;2023-06-14T04:46:18;14.00;99.90
5200;DHT22;2619;47.868;11.892;2023-06-14T04:48:44;14.30;99.90
5200;DHT22;2619;47.868;11.892;2023-06-14T04:51:11;14.60;99.90
5200;DHT22;2619;47.868;11.892;2023-06-14T04:53:36;14.60;99.90
5200;DHT22;2619;47.868;11.892;2023-06-14T04:56:03;15.50;99.90
5200;DHT22;2619;47.868;11.892;2023-06-14T04:58:29;15.90;99.90
5200;DHT22;2619;47.868;11.892;2023-06-14T05:00:55;16.30;99.90
5200;DHT22;2619;47.868;11.892;2023-06-14T05:03:22;16.50;99.90
5200;DHT22;2619;47.868;11.892;2023-06-14T05:05:49;16.30;99.90
5200;DHT22;2619;47.868;11.892;2023-06-14T05:08:16;16.40;98.00
5200;DHT22;2619;47.868;11.892;2023-06-14T05:10:41;16.40;98.70
5200;DHT22;2619;47.868;11.892;2023-06-14T05:13:07;16.40;98.60
5200;DHT22;2619;47.868;11.892;2023-06-14T05:15:33;16.90;99.30
5200;DHT22;2619;47.868;11.892;2023-06-14T05:17:59;17.50;97.10
5200;DHT22;2619;47.868;11.892;2023-06-14T05:20:25;17.40;97.80
5200;DHT22;2619;47.868;11.892;2023-06-14T05:22:53;17.90;96.90
5200;DHT22;2619;47.868;11.892;2023-06-14T05:25:21;17.80;96.90
5200;DHT22;2619;47.868;11.892;2023-06-14T05:27:47;17.80;95.90
5200;DHT22;2619;47.868;11.892;2023-06-14T05:30:14;17.90;96.20
5200;DHT22;2619;47.868;11.892;2023-06-14T05:32:41;17.80;96.10
5200;DHT22;2619;47.868;11.892;2023-06-14T05:35:06;17.60;96.20
5200;DHT22;2619;47.868;11.892;2023-06-14T05:37:32;17.60;95.90
5200;DHT22;2619;47.868;11.892;2023-06-14T05:39:58;17.70;96.80
5200;DHT22;2619;47.868;11.892;2023-06-14T05:42:23;17.80;97.00
5200;DHT22;2619;47.868;11.892;2023-06-14T05:44:49;17.70;96.30
5200;DHT22;2619;47.868;11.892;2023-06-14T05:47:14;17.80;95.30
5200;DHT22;2619;47.868;11.892;2023-06-14T05:49:40;17.80;94.00
5200;DHT22;2619;47.868;11.892;2023-06-14T05:52:06;17.40;95.10
5200;DHT22;2619;47.868;11.892;2023-06-14T05:54:32;17.70;94.30
5200;DHT22;2619;47.868;11.892;2023-06-14T05:56:58;17.80;94.80
5200;DHT22;2619;47.868;11.892;2023-06-14T05:59:27;17.90;94.90
5200;DHT22;2619;47.868;11.892;2023-06-14T06:01:52;18.40;94.00
5200;DHT22;2619;47.868;11.892;2023-06-14T06:04:18;18.70;93.50
5200;DHT22;2619;47.868;11.892;2023-06-14T06:06:44;19.00;93.70
5200;DHT22;2619;47.868;11.892;2023-06-14T06:09:10;19.30;92.30
5200;DHT22;2619;47.868;11.892;2023-06-14T06:11:36;19.50;91.80
5200;DHT22;2619;47.868;11.892;2023-06-14T06:14:01;19.80;92.00
5200;DHT22;2619;47.868;11.892;2023-06-14T06:16:27;20.10;90.90
5200;DHT22;2619;47.868;11.892;2023-06-14T06:18:52;20.50;90.30
5200;DHT22;2619;47.868;11.892;2023-06-14T06:21:18;20.80;89.70
5200;DHT22;2619;47.868;11.892;2023-06-14T06:23:43;21.20;90.50
5200;DHT22;2619;47.868;11.892;2023-06-14T06:26:09;21.30;88.20
5200;DHT22;2619;47.868;11.892;2023-06-14T06:28:35;21.40;87.00
5200;DHT22;2619;47.868;11.892;2023-06-14T06:31:00;21.50;88.00
5200;DHT22;2619;47.868;11.892;2023-06-14T06:33:26;21.80;86.90
5200;DHT22;2619;47.868;11.892;2023-06-14T06:35:52;21.30;85.70
5200;DHT22;2619;47.868;11.892;2023-06-14T06:38:17;20.80;89.00
5200;DHT22;2619;47.868;11.892;2023-06-14T06:40:44;21.10;86.60
5200;DHT22;2619;47.868;11.892;2023-06-14T06:43:10;21.40;86.40
5200;DHT22;2619;47.868;11.892;2023-06-14T06:45:39;21.50;87.80
5200;DHT22;2619;47.868;11.892;2023-06-14T06:48:05;21.50;87.90
5200;DHT22;2619;47.868;11.892;2023-06-14T06:50:31;22.30;87.20
5200;DHT22;2619;47.868;11.892;2023-06-14T06:52:56;22.90;83.50
5200;DHT22;2619;47.868;11.892;2023-06-14T06:55:22;23.30;81.60
5200;DHT22;2619;47.868;11.892;2023-06-14T06:57:48;23.70;80.50
5200;DHT22;2619;47.868;11.892;2023-06-14T07:00:15;23.90;78.80
5200;DHT22;2619;47.868;11.892;2023-06-14T07:02:41;23.20;77.70
5200;DHT22;2619;47.868;11.892;2023-06-14T07:05:07;22.70;75.80
5200;DHT22;2619;47.868;11.892;2023-06-14T07:07:33;22.30;81.60
5200;DHT22;2619;47.868;11.892;2023-06-14T07:09:59;22.70;79.20
5200;DHT22;2619;47.868;11.892;2023-06-14T07:12:25;22.80;78.20
5200;DHT22;2619;47.868;11.892;2023-06-14T07:14:51;23.10;80.40
5200;DHT22;2619;47.868;11.892;2023-06-14T07:20:40;23.30;78.20
5200;DHT22;2619;47.868;11.892;2023-06-14T07:23:06;22.80;77.80
5200;DHT22;2619;47.868;11.892;2023-06-14T07:25:32;22.70;75.00
5200;DHT22;2619;47.868;11.892;2023-06-14T07:27:58;22.80;73.50
5200;DHT22;2619;47.868;11.892;2023-06-14T07:30:23;23.00;72.70
5200;DHT22;2619;47.868;11.892;2023-06-14T07:32:52;21.40;74.70
5200;DHT22;2619;47.868;11.892;2023-06-14T07:35:18;21.20;80.60
5200;DHT22;2619;47.868;11.892;2023-06-14T07:37:43;21.00;79.20
5200;DHT22;2619;47.868;11.892;2023-06-14T07:40:09;21.10;80.00
5200;DHT22;2619;47.868;11.892;2023-06-14T07:42:35;21.30;82.80
5200;DHT22;2619;47.868;11.892;2023-06-14T07:45:05;21.00;82.20
5200;DHT22;2619;47.868;11.892;2023-06-14T07:47:32;21.10;79.70
5200;DHT22;2619;47.868;11.892;2023-06-14T07:49:57;21.30;80.70
5200;DHT22;2619;47.868;11.892;2023-06-14T07:52:23;21.30;80.30
5200;DHT22;2619;47.868;11.892;2023-06-14T07:54:48;21.30;82.20
5200;DHT22;2619;47.868;11.892;2023-06-14T07:57:14;21.10;82.80
5200;DHT22;2619;47.868;11.892;2023-06-14T07:59:40;21.60;83.50
5200;DHT22;2619;47.868;11.892;2023-06-14T08:02:06;21.60;83.30
5200;DHT22;2619;47.868;11.892;2023-06-14T08:04:32;21.00;83.00
5200;DHT22;2619;47.868;11.892;2023-06-14T08:06:58;21.20;84.10
5200;DHT22;2619;47.868;11.892;2023-06-14T08:09:23;21.80;81.40
5200;DHT22;2619;47.868;11.892;2023-06-14T08:11:50;22.20;81.40
5200;DHT22;2619;47.868;11.892;2023-06-14T08:14:16;22.40;80.70
5200;DHT22;2619;47.868;11.892;2023-06-14T08:16:41;22.60;80.30
5200;DHT22;2619;47.868;11.892;2023-06-14T08:19:07;22.60;76.40
5200;DHT22;2619;47.868;11.892;2023-06-14T08:21:32;22.10;80.80
5200;DHT22;2619;47.868;11.892;2023-06-14T08:23:59;22.20;79.70
5200;DHT22;2619;47.868;11.892;2023-06-14T08:26:25;21.90;81.70
5200;DHT22;2619;47.868;11.892;2023-06-14T08:28:54;21.90;79.10
5200;DHT22;2619;47.868;11.892;2023-06-14T08:31:20;21.90;84.00
5200;DHT22;2619;47.868;11.892;2023-06-14T08:33:46;21.70;81.80
5200;DHT22;2619;47.868;11.892;2023-06-14T08:36:12;21.80;83.90
5200;DHT22;2619;47.868;11.892;2023-06-14T08:38:38;21.50;83.60
5200;DHT22;2619;47.868;11.892;2023-06-14T08:41:05;21.70;84.10
5200;DHT22;2619;47.868;11.892;2023-06-14T08:43:34;21.80;83.60
5200;DHT22;2619;47.868;11.892;2023-06-14T08:46:04;21.90;77.90
5200;DHT22;2619;47.868;11.892;2023-06-14T08:48:31;21.90;81.90
5200;DHT22;2619;47.868;11.892;2023-06-14T08:51:02;22.00;81.60
5200;DHT22;2619;47.868;11.892;2023-06-14T08:53:33;22.20;80.00
5200;DHT22;2619;47.868;11.892;2023-06-14T08:56:02;22.10;79.70
5200;DHT22;2619;47.868;11.892;2023-06-14T08:58:30;22.00;80.20
5200;DHT22;2619;47.868;11.892;2023-06-14T09:00:57;22.20;76.90
5200;DHT22;2619;47.868;11.892;2023-06-14T09:03:23;22.40;77.60
5200;DHT22;2619;47.868;11.892;2023-06-14T09:05:56;22.50;79.10
5200;DHT22;2619;47.868;11.892;2023-06-14T09:08:22;22.70;81.90
5200;DHT22;2619;47.868;11.892;2023-06-14T09:10:48;22.20;80.80
5200;DHT22;2619;47.868;11.892;2023-06-14T09:13:14;22.50;79.70
5200;DHT22;2619;47.868;11.892;2023-06-14T09:15:40;22.00;81.70
5200;DHT22;2619;47.868;11.892;2023-06-14T09:18:05;21.80;81.90
5200;DHT22;2619;47.868;11.892;2023-06-14T09:20:32;22.00;80.70
5200;DHT22;2619;47.868;11.892;2023-06-14T09:23:00;21.90;80.10
5200;DHT22;2619;47.868;11.892;2023-06-14T09:25:26;22.20;79.80
5200;DHT22;2619;47.868;11.892;2023-06-14T09:27:53;22.30;82.40
5200;DHT22;2619;47.868;11.892;2023-06-14T09:30:20;22.30;77.60
5200;DHT22;2619;47.868;11.892;2023-06-14T09:32:46;22.50;80.00
5200;DHT22;2619;47.868;11.892;2023-06-14T09:35:11;22.40;80.10
5200;DHT22;2619;47.868;11.892;2023-06-14T09:37:37;22.30;80.00
5200;DHT22;2619;47.868;11.892;2023-06-14T09:40:05;22.60;80.00
5200;DHT22;2619;47.868;11.892;2023-06-14T09:42:31;22.80;78.00
5200;DHT22;2619;47.868;11.892;2023-06-14T09:44:57;22.90;78.80
5200;DHT22;2619;47.868;11.892;2023-06-14T09:47:23;23.00;76.10
5200;DHT22;2619;47.868;11.892;2023-06-14T09:49:50;23.10;79.10
5200;DHT22;2619;47.868;11.892;2023-06-14T09:52:17;23.20;76.80
5200;DHT22;2619;47.868;11.892;2023-06-14T09:54:45;23.30;75.30
5200;DHT22;2619;47.868;11.892;2023-06-14T09:57:22;23.20;73.80
5200;DHT22;2619;47.868;11.892;2023-06-14T09:59:48;23.10;77.70
5200;DHT22;2619;47.868;11.892;2023-06-14T10:02:25;23.20;76.10
5200;DHT22;2619;47.868;11.892;2023-06-14T10:05:08;23.00;75.50
5200;DHT22;2619;47.868;11.892;2023-06-14T10:07:48;22.50;82.30
5200;DHT22;2619;47.868;11.892;2023-06-14T10:10:18;22.60;79.80
5200;DHT22;2619;47.868;11.892;2023-06-14T10:12:44;22.90;79.40
5200;DHT22;2619;47.868;11.892;2023-06-14T10:15:27;23.40;75.80
5200;DHT22;2619;47.868;11.892;2023-06-14T10:23:36;24.10;74.60
5200;DHT22;2619;47.868;11.892;2023-06-14T10:26:02;24.30;72.30
5200;DHT22;2619;47.868;11.892;2023-06-14T10:28:28;24.50;69.10
5200;DHT22;2619;47.868;11.892;2023-06-14T10:31:07;24.40;70.80
5200;DHT22;2619;47.868;11.892;2023-06-14T10:33:34;24.00;71.10
5200;DHT22;2619;47.868;11.892;2023-06-14T10:36:09;23.80;73.30
5200;DHT22;2619;47.868;11.892;2023-06-14T10:38:36;23.60;72.80
5200;DHT22;2619;47.868;11.892;2023-06-14T10:41:04;23.80;69.30
5200;DHT22;2619;47.868;11.892;2023-06-14T10:43:30;24.10;68.60
5200;DHT22;2619;47.868;11.892;2023-06-14T10:46:18;24.10;70.40
5200;DHT22;2619;47.868;11.892;2023-06-14T10:48:47;24.30;69.50
5200;DHT22;2619;47.868;11.892;2023-06-14T10:51:16;24.50;70.40
5200;DHT22;2619;47.868;11.892;2023-06-14T10:53:49;24.30;72.00
5200;DHT22;2619;47.868;11.892;2023-06-14T10:59:13;23.30;71.10
5200;DHT22;2619;47.868;11.892;2023-06-14T11:01:45;23.70;67.90
5200;DHT22;2619;47.868;11.892;2023-06-14T11:04:17;24.00;69.40
5200;DHT22;2619;47.868;11.892;2023-06-14T11:06:50;23.80;67.00
5200;DHT22;2619;47.868;11.892;2023-06-14T11:12:03;24.50;70.90
5200;DHT22;2619;47.868;11.892;2023-06-14T11:14:32;24.70;66.60
5200;DHT22;2619;47.868;11.892;2023-06-14T11:16:57;24.70;69.90
5200;DHT22;2619;47.868;11.892;2023-06-14T11:19:23;24.60;62.50
5200;DHT22;2619;47.868;11.892;2023-06-14T11:21:49;24.70;69.00
5200;DHT22;2619;47.868;11.892;2023-06-14T11:24:17;24.80;68.70
5200;DHT22;2619;47.868;11.892;2023-06-14T11:26:42;24.60;66.70
5200;DHT22;2619;47.868;11.892;2023-06-14T11:29:08;24.50;70.10
5200;DHT22;2619;47.868;11.892;2023-06-14T11:31:34;24.70;67.40
5200;DHT22;2619;47.868;11.892;2023-06-14T11:34:00;24.80;65.80
5200;DHT22;2619;47.868;11.892;2023-06-14T11:36:34;24.80;64.80
5200;DHT22;2619;47.868;11.892;2023-06-14T11:39:03;24.90;64.30
5200;DHT22;2619;47.868;11.892;2023-06-14T11:41:41;25.00;68.40
5200;DHT22;2619;47.868;11.892;2023-06-14T11:44:07;25.20;62.20
5200;DHT22;2619;47.868;11.892;2023-06-14T11:46:34;24.90;64.00
5200;DHT22;2619;47.868;11.892;2023-06-14T11:49:02;24.90;62.90
5200;DHT22;2619;47.868;11.892;2023-06-14T11:51:32;24.90;61.40
5200;DHT22;2619;47.868;11.892;2023-06-14T11:53:58;25.00;65.20
5200;DHT22;2619;47.868;11.892;2023-06-14T11:56:24;24.90;66.30
5200;DHT22;2619;47.868;11.892;2023-06-14T11:58:51;25.10;65.20
5200;DHT22;2619;47.868;11.892;2023-06-14T12:01:17;25.40;64.10
5200;DHT22;2619;47.868;11.892;2023-06-14T12:03:53;25.50;59.80
5200;DHT22;2619;47.868;11.892;2023-06-14T12:06:26;25.40;62.00
5200;DHT22;2619;47.868;11.892;2023-06-14T12:08:56;25.30;64.40
5200;DHT22;2619;47.868;11.892;2023-06-14T12:11:22;25.40;59.10
5200;DHT22;2619;47.868;11.892;2023-06-14T12:13:48;25.20;62.20
5200;DHT22;2619;47.868;11.892;2023-06-14T12:16:14;25.10;58.30
5200;DHT22;2619;47.868;11.892;2023-06-14T12:18:40;25.30;63.30
5200;DHT22;2619;47.868;11.892;2023-06-14T12:21:09;25.30;60.90
5200;DHT22;2619;47.868;11.892;2023-06-14T12:23:42;25.50;62.60
5200;DHT22;2619;47.868;11.892;2023-06-14T12:26:08;25.60;61.40
5200;DHT22;2619;47.868;11.892;2023-06-14T12:28:33;25.70;62.90
5200;DHT22;2619;47.868;11.892;2023-06-14T12:30:59;25.60;59.70
5200;DHT22;2619;47.868;11.892;2023-06-14T12:33:25;25.10;65.70
5200;DHT22;2619;47.868;11.892;2023-06-14T12:35:53;24.80;66.60
5200;DHT22;2619;47.868;11.892;2023-06-14T12:38:20;24.90;66.10
5200;DHT22;2619;47.868;11.892;2023-06-14T12:40:46;24.60;67.00
5200;DHT22;2619;47.868;11.892;2023-06-14T12:43:12;24.90;64.70
5200;DHT22;2619;47.868;11.892;2023-06-14T12:45:37;25.20;64.60
5200;DHT22;2619;47.868;11.892;2023-06-14T12:48:03;25.30;65.60
5200;DHT22;2619;47.868;11.892;2023-06-14T12:50:29;25.50;63.40
5200;DHT22;2619;47.868;11.892;2023-06-14T12:52:55;25.80;62.30
5200;DHT22;2619;47.868;11.892;2023-06-14T12:55:21;25.90;61.60
5200;DHT22;2619;47.868;11.892;2023-06-14T12:57:46;26.00;60.20
5200;DHT22;2619;47.868;11.892;2023-06-14T13:00:15;25.90;59.90
5200;DHT22;2619;47.868;11.892;2023-06-14T13:02:40;25.90;60.60
5200;DHT22;2619;47.868;11.892;2023-06-14T13:05:06;25.60;63.80
5200;DHT22;2619;47.868;11.892;2023-06-14T13:07:32;25.10;64.50
5200;DHT22;2619;47.868;11.892;2023-06-14T13:09:58;24.70;65.20
5200;DHT22;2619;47.868;11.892;2023-06-14T13:12:23;24.80;64.90
5200;DHT22;2619;47.868;11.892;2023-06-14T13:14:49;25.00;64.40
5200;DHT22;2619;47.868;11.892;2023-06-14T13:17:15;25.10;62.10
5200;DHT22;2619;47.868;11.892;2023-06-14T13:19:40;25.20;62.80
5200;DHT22;2619;47.868;11.892;2023-06-14T13:22:07;25.30;58.90
5200;DHT22;2619;47.868;11.892;2023-06-14T13:24:34;25.50;63.80
5200;DHT22;2619;47.868;11.892;2023-06-14T13:26:59;25.60;64.00
5200;DHT22;2619;47.868;11.892;2023-06-14T13:29:25;25.50;63.20
5200;DHT22;2619;47.868;11.892;2023-06-14T13:31:52;25.50;61.70
5200;DHT22;2619;47.868;11.892;2023-06-14T13:34:18;25.40;63.70
5200;DHT22;2619;47.868;11.892;2023-06-14T13:36:43;25.50;64.10
5200;DHT22;2619;47.868;11.892;2023-06-14T13:39:09;25.10;61.80
5200;DHT22;2619;47.868;11.892;2023-06-14T13:41:36;25.30;62.50
5200;DHT22;2619;47.868;11.892;2023-06-14T13:44:02;25.30;64.60
5200;DHT22;2619;47.868;11.892;2023-06-14T13:46:30;25.00;66.50
5200;DHT22;2619;47.868;11.892;2023-06-14T13:48:56;25.30;63.20
5200;DHT22;2619;47.868;11.892;2023-06-14T13:51:23;25.50;61.40
5200;DHT22;2619;47.868;11.892;2023-06-14T13:53:49;25.50;58.30
5200;DHT22;2619;47.868;11.892;2023-06-14T13:56:16;25.50;61.00
5200;DHT22;2619;47.868;11.892;2023-06-14T13:58:42;25.80;60.70
5200;DHT22;2619;47.868;11.892;2023-06-14T14:01:08;26.00;57.60
5200;DHT22;2619;47.868;11.892;2023-06-14T14:03:34;25.90;57.60
5200;DHT22;2619;47.868;11.892;2023-06-14T14:06:03;26.00;59.40
5200;DHT22;2619;47.868;11.892;2023-06-14T14:08:29;26.10;60.30
5200;DHT22;2619;47.868;11.892;2023-06-14T14:10:55;26.20;58.20
5200;DHT22;2619;47.868;11.892;2023-06-14T14:13:21;26.20;56.10
5200;DHT22;2619;47.868;11.892;2023-06-14T14:15:47;26.00;56.20
5200;DHT22;2619;47.868;11.892;2023-06-14T14:18:14;25.90;61.30
5200;DHT22;2619;47.868;11.892;2023-06-14T14:20:40;25.80;58.90
5200;DHT22;2619;47.868;11.892;2023-06-14T14:23:06;25.80;60.70
5200;DHT22;2619;47.868;11.892;2023-06-14T14:25:31;25.40;56.10
5200;DHT22;2619;47.868;11.892;2023-06-14T14:27:57;25.30;60.70
5200;DHT22;2619;47.868;11.892;2023-06-14T14:30:22;25.10;58.80
5200;DHT22;2619;47.868;11.892;2023-06-14T14:32:49;24.90;61.80
5200;DHT22;2619;47.868;11.892;2023-06-14T14:35:16;25.00;61.90
5200;DHT22;2619;47.868;11.892;2023-06-14T14:37:43;25.00;59.70
5200;DHT22;2619;47.868;11.892;2023-06-14T14:40:08;25.00;57.00
5200;DHT22;2619;47.868;11.892;2023-06-14T14:42:35;25.20;59.90
5200;DHT22;2619;47.868;11.892;2023-06-14T14:45:01;25.30;58.40
5200;DHT22;2619;47.868;11.892;2023-06-14T14:47:26;25.30;59.60
5200;DHT22;2619;47.868;11.892;2023-06-14T14:49:52;25.20;59.20
5200;DHT22;2619;47.868;11.892;2023-06-14T14:52:17;25.00;60.50
5200;DHT22;2619;47.868;11.892;2023-06-14T14:54:43;25.00;60.60
5200;DHT22;2619;47.868;11.892;2023-06-14T14:57:09;24.80;59.20
5200;DHT22;2619;47.868;11.892;2023-06-14T14:59:35;25.00;59.80
5200;DHT22;2619;47.868;11.892;2023-06-14T15:02:01;25.00;60.00
5200;DHT22;2619;47.868;11.892;2023-06-14T15:04:27;25.00;59.00
5200;DHT22;2619;47.868;11.892;2023-06-14T15:06:52;25.00;57.90
5200;DHT22;2619;47.868;11.892;2023-06-14T15:09:18;25.10;59.00
5200;DHT22;2619;47.868;11.892;2023-06-14T15:11:44;25.10;56.40
5200;DHT22;2619;47.868;11.892;2023-06-14T15:14:10;25.10;57.90
5200;DHT22;2619;47.868;11.892;2023-06-14T15:16:36;25.10;61.20
5200;DHT22;2619;47.868;11.892;2023-06-14T15:19:01;25.00;58.60
5200;DHT22;2619;47.868;11.892;2023-06-14T15:21:27;25.10;59.40
5200;DHT22;2619;47.868;11.892;2023-06-14T15:23:53;25.20;57.60
5200;DHT22;2619;47.868;11.892;2023-06-14T15:26:19;25.00;57.70
5200;DHT22;2619;47.868;11.892;2023-06-14T15:28:45;25.00;59.20
5200;DHT22;2619;47.868;11.892;2023-06-14T15:31:10;25.00;58.50
5200;DHT22;2619;47.868;11.892;2023-06-14T15:33:36;24.90;57.10
5200;DHT22;2619;47.868;11.892;2023-06-14T15:36:01;24.40;57.90
5200;DHT22;2619;47.868;11.892;2023-06-14T15:38:28;24.20;59.00
5200;DHT22;2619;47.868;11.892;2023-06-14T15:40:53;24.20;59.20
5200;DHT22;2619;47.868;11.892;2023-06-14T15:43:19;24.20;59.60
5200;DHT22;2619;47.868;11.892;2023-06-14T15:45:44;24.30;61.60
5200;DHT22;2619;47.868;11.892;2023-06-14T15:48:10;24.40;58.40
5200;DHT22;2619;47.868;11.892;2023-06-14T15:50:36;24.20;59.20
5200;DHT22;2619;47.868;11.892;2023-06-14T15:53:02;24.20;60.60
5200;DHT22;2619;47.868;11.892;2023-06-14T15:55:27;23.80;60.20
5200;DHT22;2619;47.868;11.892;2023-06-14T15:57:53;23.40;61.10
5200;DHT22;2619;47.868;11.892;2023-06-14T16:00:19;23.60;58.50
5200;DHT22;2619;47.868;11.892;2023-06-14T16:02:45;23.70;59.00
5200;DHT22;2619;47.868;11.892;2023-06-14T16:05:11;23.90;61.50